Campbell Foss — WDC7754 — position and weather

sailwx.info

Track history (hours):
 
Tides and Currents Weather Stations Pressure Air Temp Water Temp Dewpoint Dewpoint Depression Visibility Wind Speed Wind Dir Waves Ship Positions

Campbell Foss

Owner: Foss Maritime Co., Seattle, WA. More information available from US FCC via Universal Licensing System and Coast Guard Vessel Documentation Center.

Last reported at 2014-Oct-25 20:33 UTC. Time now 2014-Oct-25 20:39 UTC.
Position N 33°46' W 118°13'.

Length 23 m; draft 16 m.

Type: Tug. MMSI: 367076360.

Date/timePositionNaut miles runAvg speedWind from/ knotsBaromVisibWave heightAir tempDewpointWater temp
2014-Oct-25 20:33N 33°46' W 118°13'1 1.4
2014-Oct-25 19:33N 33°45' W 118°13'1 1.4
2014-Oct-25 18:33N 33°46' W 118°13'0 0.0
2014-Oct-25 17:33N 33°46' W 118°13'0 0.0
2014-Oct-25 16:33N 33°46' W 118°13'0 0.0
2014-Oct-25 15:33N 33°46' W 118°13'0 0.0
2014-Oct-25 14:33N 33°46' W 118°13'0 0.0
2014-Oct-25 13:33N 33°46' W 118°13'1 1.0
2014-Oct-25 12:33N 33°46' W 118°14'3 3.2
2014-Oct-25 11:33N 33°44' W 118°12'3 2.8
2014-Oct-25 10:33N 33°46' W 118°13'0 0.0
2014-Oct-25 09:33N 33°46' W 118°13'0 0.0
2014-Oct-25 08:33N 33°46' W 118°13'0 0.0
2014-Oct-25 07:33N 33°46' W 118°13'0 0.0
2014-Oct-25 06:33N 33°46' W 118°13'0 0.0
2014-Oct-25 05:33N 33°46' W 118°13'1 0.7
2014-Oct-25 04:33N 33°46' W 118°13'0 0.0
2014-Oct-25 03:33N 33°46' W 118°13'0 0.0
2014-Oct-25 02:33N 33°46' W 118°13'2 2.0
2014-Oct-25 01:33N 33°46' W 118°16'2 1.5
2014-Oct-25 00:33N 33°45' W 118°17'4 3.8
2014-Oct-24 23:33N 33°42' W 118°13'1 1.4
2014-Oct-24 22:33N 33°43' W 118°12'1 0.7
2014-Oct-24 21:33N 33°43' W 118°11'1 0.8
2014-Oct-24 20:33N 33°42' W 118°11'4 4.2
2014-Oct-24 19:33N 33°46' W 118°13'1 0.8
2014-Oct-24 18:33N 33°45' W 118°14'1 0.8
2014-Oct-24 17:33N 33°46' W 118°13'1 0.8
2014-Oct-24 16:34N 33°46' W 118°14'1 1.5
2014-Oct-24 15:34N 33°46' W 118°16'2 1.8
2014-Oct-24 14:33N 33°44' W 118°17'4 4.3
2014-Oct-24 13:33N 33°44' W 118°11'0 0.0
2014-Oct-24 12:33N 33°44' W 118°11'0 0.0
2014-Oct-24 11:34N 33°44' W 118°11'4 4.1
2014-Oct-24 10:33N 33°45' W 118°16'1 0.8
2014-Oct-24 09:33N 33°46' W 118°16'3 2.9
2014-Oct-24 08:34N 33°43' W 118°15'3 3.2
2014-Oct-24 07:34N 33°46' W 118°13'0 0.2
2014-Oct-24 06:34N 33°46' W 118°13'0 0.0
2014-Oct-24 05:34N 33°46' W 118°13'0 0.0
2014-Oct-24 04:33N 33°46' W 118°13'0 0.0
2014-Oct-24 03:34N 33°46' W 118°13'3 2.6
2014-Oct-24 02:34N 33°44' W 118°11'2 2.2
2014-Oct-24 01:34N 33°44' W 118°14'0 0.0
2014-Oct-24 00:34N 33°44' W 118°14'0 0.0
2014-Oct-23 23:34N 33°44' W 118°14'0 0.0
2014-Oct-23 22:34N 33°44' W 118°14'2 2.2
2014-Oct-23 21:34N 33°46' W 118°16'1 0.7
2014-Oct-23 20:34N 33°45' W 118°16'2 2.5
2014-Oct-23 19:34N 33°46' W 118°13'1 1.5
2014-Oct-23 18:34N 33°44' W 118°14'0 0.0
2014-Oct-23 17:34N 33°44' W 118°14'1 1.5
2014-Oct-23 16:34N 33°46' W 118°13'0 0.4
2014-Oct-23 15:34N 33°46' W 118°13'2 2.0
2014-Oct-23 14:34N 33°46' W 118°16'0 0.0
2014-Oct-23 13:33N 33°46' W 118°16'1 1.3
2014-Oct-23 12:33N 33°45' W 118°16'1 1.0
2014-Oct-23 11:33N 33°45' W 118°16'0 0.4
2014-Oct-23 10:34N 33°46' W 118°16'0 0.0
2014-Oct-23 09:29N 33°46' W 118°16'0 0.0
2014-Oct-23 08:33N 33°46' W 118°16'3 3.0
2014-Oct-23 07:33N 33°44' W 118°13'3 2.7
2014-Oct-23 06:34N 33°46' W 118°13'0 0.0
2014-Oct-23 05:33N 33°46' W 118°13'1 0.7
2014-Oct-23 04:34N 33°46' W 118°13'0 0.0
2014-Oct-23 03:34N 33°46' W 118°13'1 1.4
2014-Oct-23 02:33N 33°44' W 118°13'0 0.3
2014-Oct-23 01:34N 33°44' W 118°12'2 1.9
2014-Oct-23 00:33N 33°46' W 118°13'0 0.0
2014-Oct-22 23:33N 33°46' W 118°13'0 0.0
2014-Oct-22 22:33N 33°46' W 118°13'0 0.5
2014-Oct-22 21:34N 33°46' W 118°13'1 1.0
2014-Oct-22 20:33N 33°45' W 118°13'1 0.8
2014-Oct-22 19:34N 33°45' W 118°12'2 0.5
2014-Oct-22 16:22N 33°43' W 118°13'2 2.3
2014-Oct-22 15:34N 33°45' W 118°13'0 0.4
2014-Oct-22 14:33N 33°46' W 118°13'0 0.0
2014-Oct-22 13:34N 33°46' W 118°13'0 0.3
2014-Oct-22 12:33N 33°45' W 118°13'1 0.8
2014-Oct-22 11:33N 33°46' W 118°13'0 0.0
2014-Oct-22 10:34N 33°46' W 118°13'1 0.7
2014-Oct-22 09:33N 33°46' W 118°13'1 0.8
2014-Oct-22 08:27N 33°45' W 118°13'2 1.8
2014-Oct-22 07:33N 33°46' W 118°13'0 0.0
2014-Oct-22 06:34N 33°46' W 118°13'0 0.1
2014-Oct-22 05:33N 33°46' W 118°13'2 1.2
2014-Oct-22 03:33N 33°46' W 118°16'6 4.4
2014-Oct-22 02:09N 33°42' W 118°21'8 8.3
2014-Oct-22 01:08N 33°49' W 118°27'5 9.0
2014-Oct-22 00:34N 33°54' W 118°27'0 0.2
2014-Oct-21 23:33N 33°54' W 118°27'1 1.0
2014-Oct-21 22:33N 33°53' W 118°27'0 0.3
2014-Oct-21 21:34N 33°53' W 118°27'0 0.4
2014-Oct-21 20:34N 33°53' W 118°27'13 3.3
2014-Oct-21 16:33N 33°44' W 118°16'2 2.2
2014-Oct-21 15:33N 33°46' W 118°16'0 0.1
2014-Oct-21 14:33N 33°46' W 118°16'2 2.2
2014-Oct-21 13:33N 33°45' W 118°13'1 1.2
2014-Oct-21 12:33N 33°44' W 118°13'2 1.6
2014-Oct-21 11:33N 33°46' W 118°13'1 0.6
2014-Oct-21 10:33N 33°46' W 118°13'0 0.0
2014-Oct-21 09:33N 33°46' W 118°13'0 0.0
2014-Oct-21 08:33N 33°46' W 118°13'0 0.0
2014-Oct-21 07:33N 33°46' W 118°13'0 0.0
2014-Oct-21 06:33N 33°46' W 118°13'1 1.2
2014-Oct-21 05:33N 33°46' W 118°14'3 1.2
2014-Oct-21 03:18N 33°44' W 118°16'1 1.2
2014-Oct-21 02:29N 33°43' W 118°16'3 2.6
2014-Oct-21 01:29N 33°44' W 118°13'1 0.6
2014-Oct-21 00:33N 33°44' W 118°13'3 2.7
2014-Oct-20 23:33N 33°46' W 118°14'1 1.1
2014-Oct-20 22:33N 33°45' W 118°13'0 0.4
2014-Oct-20 21:33N 33°46' W 118°13'0 0.0
2014-Oct-20 20:33N 33°46' W 118°13'0 0.4
2014-Oct-20 19:33N 33°45' W 118°13'8 5.8
2014-Oct-20 18:14N 33°43' W 118°22'10 5.9
2014-Oct-20 16:33N 33°51' W 118°28'3 3.0
2014-Oct-20 15:31N 33°54' W 118°27'0 0.5
2014-Oct-20 14:33N 33°54' W 118°27'15 4.9
2014-Oct-20 11:31N 33°44' W 118°14'3 2.7
2014-Oct-20 10:33N 33°46' W 118°13'0 0.0
2014-Oct-20 09:33N 33°46' W 118°13'0 0.0
2014-Oct-20 08:33N 33°46' W 118°13'0 0.0
2014-Oct-20 07:33N 33°46' W 118°13'0 0.0
2014-Oct-20 06:34N 33°46' W 118°13'0 0.0
2014-Oct-20 05:33N 33°46' W 118°13'1 0.6
2014-Oct-20 04:33N 33°46' W 118°13'0 0.0
2014-Oct-20 03:32N 33°46' W 118°13'1 0.6
2014-Oct-20 02:33N 33°46' W 118°13'0 0.0
2014-Oct-20 01:33N 33°46' W 118°13'0 0.0
2014-Oct-20 00:33N 33°46' W 118°13'0 0.0
2014-Oct-19 23:33N 33°46' W 118°13'0 0.0
2014-Oct-19 22:33N 33°46' W 118°13'2 2.2
2014-Oct-19 21:32N 33°44' W 118°12'1 1.2
2014-Oct-19 20:26N 33°43' W 118°11'3 4.0
2014-Oct-19 19:33N 33°46' W 118°13'1 0.7
2014-Oct-19 18:33N 33°46' W 118°14'2 1.8
2014-Oct-19 17:34N 33°46' W 118°16'0 0.0
2014-Oct-19 16:33N 33°46' W 118°16'0 0.0
2014-Oct-19 15:33N 33°46' W 118°16'0 0.0
2014-Oct-19 14:34N 33°46' W 118°16'0 0.0
2014-Oct-19 13:34N 33°46' W 118°16'0 0.0
2014-Oct-19 12:34N 33°46' W 118°16'0 0.0
2014-Oct-19 11:34N 33°46' W 118°16'1 1.2
2014-Oct-19 10:34N 33°46' W 118°14'1 1.4
2014-Oct-19 09:34N 33°46' W 118°13'0 0.0
2014-Oct-19 08:34N 33°46' W 118°13'0 0.0
2014-Oct-19 07:34N 33°46' W 118°13'0 0.0
2014-Oct-19 06:34N 33°46' W 118°13'0 0.0
2014-Oct-19 05:34N 33°46' W 118°13'0 0.0
2014-Oct-19 04:34N 33°46' W 118°13'0 0.0
2014-Oct-19 03:34N 33°46' W 118°13'0 0.0
2014-Oct-19 02:33N 33°46' W 118°13'0 0.0
2014-Oct-19 01:34N 33°46' W 118°13'0 0.0
2014-Oct-19 00:34N 33°46' W 118°13'0 0.0
2014-Oct-18 23:34N 33°46' W 118°13'0 0.0
2014-Oct-18 22:34N 33°46' W 118°13'0 0.1
2014-Oct-18 21:33N 33°46' W 118°13'2 2.0
2014-Oct-18 20:34N 33°44' W 118°12'0 0.1
2014-Oct-18 19:34N 33°45' W 118°12'1 1.0
2014-Oct-18 18:34N 33°44' W 118°12'4 2.0
2014-Oct-18 16:33N 33°46' W 118°16'3 2.2
2014-Oct-18 15:14N 33°44' W 118°13'1 2.0
2014-Oct-18 14:33N 33°46' W 118°13'1 0.7
2014-Oct-18 13:33N 33°46' W 118°14'3 3.0
2014-Oct-18 12:33N 33°44' W 118°12'3 3.1
2014-Oct-18 11:33N 33°46' W 118°14'1 0.9
2014-Oct-18 10:33N 33°46' W 118°13'0 0.1
2014-Oct-18 09:31N 33°46' W 118°13'0 0.0
2014-Oct-18 08:31N 33°46' W 118°13'0 0.0
2014-Oct-18 07:31N 33°46' W 118°13'0 0.0
2014-Oct-18 06:31N 33°46' W 118°13'0 0.0
2014-Oct-18 05:33N 33°46' W 118°13'1 1.5
2014-Oct-18 04:33N 33°45' W 118°13'1 0.8
2014-Oct-18 03:33N 33°44' W 118°12'0 0.0
2014-Oct-18 02:33N 33°44' W 118°12'4 3.2
2014-Oct-18 01:19N 33°44' W 118°17'1 1.4
2014-Oct-18 00:33N 33°45' W 118°17'3 2.4
2014-Oct-17 23:16N 33°44' W 118°13'2 2.3
2014-Oct-17 22:33N 33°44' W 118°12'1 0.3
2014-Oct-17 20:33N 33°44' W 118°12'2 2.1
2014-Oct-17 19:33N 33°46' W 118°13'0 0.0
2014-Oct-17 18:33N 33°46' W 118°13'0 0.0
2014-Oct-17 17:33N 33°46' W 118°13'0 0.0
2014-Oct-17 16:33N 33°46' W 118°13'0 0.0
2014-Oct-17 15:33N 33°46' W 118°13'0 0.0
2014-Oct-17 14:33N 33°46' W 118°13'2 2.4
2014-Oct-17 13:33N 33°46' W 118°16'1 1.4
2014-Oct-17 12:33N 33°46' W 118°14'2 1.7
2014-Oct-17 11:33N 33°45' W 118°13'0 0.1
2014-Oct-17 10:33N 33°45' W 118°13'0 0.4
2014-Oct-17 09:33N 33°45' W 118°13'3 1.3
2014-Oct-17 07:33N 33°46' W 118°16'0 0.2
2014-Oct-17 06:33N 33°46' W 118°16'2 2.3
2014-Oct-17 05:33N 33°45' W 118°13'1 0.8
2014-Oct-17 04:33N 33°45' W 118°12'0 0.4
2014-Oct-17 03:33N 33°44' W 118°13'1 1.4
2014-Oct-17 02:33N 33°46' W 118°13'0 0.0
2014-Oct-17 01:33N 33°46' W 118°13'1 0.8
2014-Oct-17 00:33N 33°45' W 118°13'2 1.6
2014-Oct-16 23:33N 33°46' W 118°13'1 0.8
2014-Oct-16 22:33N 33°46' W 118°13'0 0.0
2014-Oct-16 21:33N 33°46' W 118°13'0 0.5
2014-Oct-16 20:33N 33°46' W 118°13'1 1.3
2014-Oct-16 19:33N 33°45' W 118°13'0 0.1
2014-Oct-16 18:33N 33°45' W 118°13'1 0.7
2014-Oct-16 17:33N 33°46' W 118°13'0 0.2
2014-Oct-16 16:33N 33°46' W 118°13'2 2.1
2014-Oct-16 15:32N 33°46' W 118°16'1 0.5
2014-Oct-16 14:33N 33°45' W 118°16'2 1.7
2014-Oct-16 13:33N 33°44' W 118°16'2 2.3
2014-Oct-16 12:33N 33°45' W 118°13'1 0.9
2014-Oct-16 11:33N 33°45' W 118°14'1 0.8
2014-Oct-16 10:33N 33°45' W 118°13'1 1.0
2014-Oct-16 09:33N 33°46' W 118°13'0 0.0
2014-Oct-16 08:33N 33°46' W 118°13'0 0.0
2014-Oct-16 07:33N 33°46' W 118°13'0 0.0
2014-Oct-16 06:33N 33°46' W 118°13'0 0.0
2014-Oct-16 05:33N 33°46' W 118°13'0 0.0
2014-Oct-16 04:33N 33°46' W 118°13'0 0.0
2014-Oct-16 03:33N 33°46' W 118°13'0 0.0
2014-Oct-16 02:33N 33°46' W 118°13'0 0.0
2014-Oct-16 01:33N 33°46' W 118°13'0 0.0
2014-Oct-16 00:33N 33°46' W 118°13'0 0.0
2014-Oct-15 23:33N 33°46' W 118°13'0 0.0
2014-Oct-15 22:33N 33°46' W 118°13'0 0.0
2014-Oct-15 21:33N 33°46' W 118°13'0 0.0
2014-Oct-15 20:33N 33°46' W 118°13'  
Track history (hours):
 
Tides and Currents Weather Stations Pressure Air Temp Water Temp Dewpoint Dewpoint Depression Visibility Wind Speed Wind Dir Waves Ship Positions

Campbell Foss

Owner: Foss Maritime Co., Seattle, WA. More information available from US FCC via Universal Licensing System and Coast Guard Vessel Documentation Center.

Last reported at 2014-Oct-25 20:33 UTC. Time now 2014-Oct-25 20:39 UTC.
Position N 33°46' W 118°13'.

Length 23 m; draft 16 m.

Type: Tug. MMSI: 367076360.

Date/timePositionNaut miles runAvg speedWind from/ knotsBaromVisibWave heightAir tempDewpointWater temp
2014-Oct-25 20:33N 33°46' W 118°13'1 1.4
2014-Oct-25 19:33N 33°45' W 118°13'1 1.4
2014-Oct-25 18:33N 33°46' W 118°13'0 0.0
2014-Oct-25 17:33N 33°46' W 118°13'0 0.0
2014-Oct-25 16:33N 33°46' W 118°13'0 0.0
2014-Oct-25 15:33N 33°46' W 118°13'0 0.0
2014-Oct-25 14:33N 33°46' W 118°13'0 0.0
2014-Oct-25 13:33N 33°46' W 118°13'1 1.0
2014-Oct-25 12:33N 33°46' W 118°14'3 3.2
2014-Oct-25 11:33N 33°44' W 118°12'3 2.8
2014-Oct-25 10:33N 33°46' W 118°13'0 0.0
2014-Oct-25 09:33N 33°46' W 118°13'0 0.0
2014-Oct-25 08:33N 33°46' W 118°13'0 0.0
2014-Oct-25 07:33N 33°46' W 118°13'0 0.0
2014-Oct-25 06:33N 33°46' W 118°13'0 0.0
2014-Oct-25 05:33N 33°46' W 118°13'1 0.7
2014-Oct-25 04:33N 33°46' W 118°13'0 0.0
2014-Oct-25 03:33N 33°46' W 118°13'0 0.0
2014-Oct-25 02:33N 33°46' W 118°13'2 2.0
2014-Oct-25 01:33N 33°46' W 118°16'2 1.5
2014-Oct-25 00:33N 33°45' W 118°17'4 3.8
2014-Oct-24 23:33N 33°42' W 118°13'1 1.4
2014-Oct-24 22:33N 33°43' W 118°12'1 0.7
2014-Oct-24 21:33N 33°43' W 118°11'1 0.8
2014-Oct-24 20:33N 33°42' W 118°11'4 4.2
2014-Oct-24 19:33N 33°46' W 118°13'1 0.8
2014-Oct-24 18:33N 33°45' W 118°14'1 0.8
2014-Oct-24 17:33N 33°46' W 118°13'1 0.8
2014-Oct-24 16:34N 33°46' W 118°14'1 1.5
2014-Oct-24 15:34N 33°46' W 118°16'2 1.8
2014-Oct-24 14:33N 33°44' W 118°17'4 4.3
2014-Oct-24 13:33N 33°44' W 118°11'0 0.0
2014-Oct-24 12:33N 33°44' W 118°11'0 0.0
2014-Oct-24 11:34N 33°44' W 118°11'4 4.1
2014-Oct-24 10:33N 33°45' W 118°16'1 0.8
2014-Oct-24 09:33N 33°46' W 118°16'3 2.9
2014-Oct-24 08:34N 33°43' W 118°15'3 3.2
2014-Oct-24 07:34N 33°46' W 118°13'0 0.2
2014-Oct-24 06:34N 33°46' W 118°13'0 0.0
2014-Oct-24 05:34N 33°46' W 118°13'0 0.0
2014-Oct-24 04:33N 33°46' W 118°13'0 0.0
2014-Oct-24 03:34N 33°46' W 118°13'3 2.6
2014-Oct-24 02:34N 33°44' W 118°11'2 2.2
2014-Oct-24 01:34N 33°44' W 118°14'0 0.0
2014-Oct-24 00:34N 33°44' W 118°14'0 0.0
2014-Oct-23 23:34N 33°44' W 118°14'0 0.0
2014-Oct-23 22:34N 33°44' W 118°14'2 2.2
2014-Oct-23 21:34N 33°46' W 118°16'1 0.7
2014-Oct-23 20:34N 33°45' W 118°16'2 2.5
2014-Oct-23 19:34N 33°46' W 118°13'1 1.5
2014-Oct-23 18:34N 33°44' W 118°14'0 0.0
2014-Oct-23 17:34N 33°44' W 118°14'1 1.5
2014-Oct-23 16:34N 33°46' W 118°13'0 0.4
2014-Oct-23 15:34N 33°46' W 118°13'2 2.0
2014-Oct-23 14:34N 33°46' W 118°16'0 0.0
2014-Oct-23 13:33N 33°46' W 118°16'1 1.3
2014-Oct-23 12:33N 33°45' W 118°16'1 1.0
2014-Oct-23 11:33N 33°45' W 118°16'0 0.4
2014-Oct-23 10:34N 33°46' W 118°16'0 0.0
2014-Oct-23 09:29N 33°46' W 118°16'0 0.0
2014-Oct-23 08:33N 33°46' W 118°16'3 3.0
2014-Oct-23 07:33N 33°44' W 118°13'3 2.7
2014-Oct-23 06:34N 33°46' W 118°13'0 0.0
2014-Oct-23 05:33N 33°46' W 118°13'1 0.7
2014-Oct-23 04:34N 33°46' W 118°13'0 0.0
2014-Oct-23 03:34N 33°46' W 118°13'1 1.4
2014-Oct-23 02:33N 33°44' W 118°13'0 0.3
2014-Oct-23 01:34N 33°44' W 118°12'2 1.9
2014-Oct-23 00:33N 33°46' W 118°13'0 0.0
2014-Oct-22 23:33N 33°46' W 118°13'0 0.0
2014-Oct-22 22:33N 33°46' W 118°13'0 0.5
2014-Oct-22 21:34N 33°46' W 118°13'1 1.0
2014-Oct-22 20:33N 33°45' W 118°13'1 0.8
2014-Oct-22 19:34N 33°45' W 118°12'2 0.5
2014-Oct-22 16:22N 33°43' W 118°13'2 2.3
2014-Oct-22 15:34N 33°45' W 118°13'0 0.4
2014-Oct-22 14:33N 33°46' W 118°13'0 0.0
2014-Oct-22 13:34N 33°46' W 118°13'0 0.3
2014-Oct-22 12:33N 33°45' W 118°13'1 0.8
2014-Oct-22 11:33N 33°46' W 118°13'0 0.0
2014-Oct-22 10:34N 33°46' W 118°13'1 0.7
2014-Oct-22 09:33N 33°46' W 118°13'1 0.8
2014-Oct-22 08:27N 33°45' W 118°13'2 1.8
2014-Oct-22 07:33N 33°46' W 118°13'0 0.0
2014-Oct-22 06:34N 33°46' W 118°13'0 0.1
2014-Oct-22 05:33N 33°46' W 118°13'2 1.2
2014-Oct-22 03:33N 33°46' W 118°16'6 4.4
2014-Oct-22 02:09N 33°42' W 118°21'8 8.3
2014-Oct-22 01:08N 33°49' W 118°27'5 9.0
2014-Oct-22 00:34N 33°54' W 118°27'0 0.2
2014-Oct-21 23:33N 33°54' W 118°27'1 1.0
2014-Oct-21 22:33N 33°53' W 118°27'0 0.3
2014-Oct-21 21:34N 33°53' W 118°27'0 0.4
2014-Oct-21 20:34N 33°53' W 118°27'13 3.3
2014-Oct-21 16:33N 33°44' W 118°16'2 2.2
2014-Oct-21 15:33N 33°46' W 118°16'0 0.1
2014-Oct-21 14:33N 33°46' W 118°16'2 2.2
2014-Oct-21 13:33N 33°45' W 118°13'1 1.2
2014-Oct-21 12:33N 33°44' W 118°13'2 1.6
2014-Oct-21 11:33N 33°46' W 118°13'1 0.6
2014-Oct-21 10:33N 33°46' W 118°13'0 0.0
2014-Oct-21 09:33N 33°46' W 118°13'0 0.0
2014-Oct-21 08:33N 33°46' W 118°13'0 0.0
2014-Oct-21 07:33N 33°46' W 118°13'0 0.0
2014-Oct-21 06:33N 33°46' W 118°13'1 1.2
2014-Oct-21 05:33N 33°46' W 118°14'3 1.2
2014-Oct-21 03:18N 33°44' W 118°16'1 1.2
2014-Oct-21 02:29N 33°43' W 118°16'3 2.6
2014-Oct-21 01:29N 33°44' W 118°13'1 0.6
2014-Oct-21 00:33N 33°44' W 118°13'3 2.7
2014-Oct-20 23:33N 33°46' W 118°14'1 1.1
2014-Oct-20 22:33N 33°45' W 118°13'0 0.4
2014-Oct-20 21:33N 33°46' W 118°13'0 0.0
2014-Oct-20 20:33N 33°46' W 118°13'0 0.4
2014-Oct-20 19:33N 33°45' W 118°13'8 5.8
2014-Oct-20 18:14N 33°43' W 118°22'10 5.9
2014-Oct-20 16:33N 33°51' W 118°28'3 3.0
2014-Oct-20 15:31N 33°54' W 118°27'0 0.5
2014-Oct-20 14:33N 33°54' W 118°27'15 4.9
2014-Oct-20 11:31N 33°44' W 118°14'3 2.7
2014-Oct-20 10:33N 33°46' W 118°13'0 0.0
2014-Oct-20 09:33N 33°46' W 118°13'0 0.0
2014-Oct-20 08:33N 33°46' W 118°13'0 0.0
2014-Oct-20 07:33N 33°46' W 118°13'0 0.0
2014-Oct-20 06:34N 33°46' W 118°13'0 0.0
2014-Oct-20 05:33N 33°46' W 118°13'1 0.6
2014-Oct-20 04:33N 33°46' W 118°13'0 0.0
2014-Oct-20 03:32N 33°46' W 118°13'1 0.6
2014-Oct-20 02:33N 33°46' W 118°13'0 0.0
2014-Oct-20 01:33N 33°46' W 118°13'0 0.0
2014-Oct-20 00:33N 33°46' W 118°13'0 0.0
2014-Oct-19 23:33N 33°46' W 118°13'0 0.0
2014-Oct-19 22:33N 33°46' W 118°13'2 2.2
2014-Oct-19 21:32N 33°44' W 118°12'1 1.2
2014-Oct-19 20:26N 33°43' W 118°11'3 4.0
2014-Oct-19 19:33N 33°46' W 118°13'1 0.7
2014-Oct-19 18:33N 33°46' W 118°14'2 1.8
2014-Oct-19 17:34N 33°46' W 118°16'0 0.0
2014-Oct-19 16:33N 33°46' W 118°16'0 0.0
2014-Oct-19 15:33N 33°46' W 118°16'0 0.0
2014-Oct-19 14:34N 33°46' W 118°16'0 0.0
2014-Oct-19 13:34N 33°46' W 118°16'0 0.0
2014-Oct-19 12:34N 33°46' W 118°16'0 0.0
2014-Oct-19 11:34N 33°46' W 118°16'1 1.2
2014-Oct-19 10:34N 33°46' W 118°14'1 1.4
2014-Oct-19 09:34N 33°46' W 118°13'0 0.0
2014-Oct-19 08:34N 33°46' W 118°13'0 0.0
2014-Oct-19 07:34N 33°46' W 118°13'0 0.0
2014-Oct-19 06:34N 33°46' W 118°13'0 0.0
2014-Oct-19 05:34N 33°46' W 118°13'0 0.0
2014-Oct-19 04:34N 33°46' W 118°13'0 0.0
2014-Oct-19 03:34N 33°46' W 118°13'0 0.0
2014-Oct-19 02:33N 33°46' W 118°13'0 0.0
2014-Oct-19 01:34N 33°46' W 118°13'0 0.0
2014-Oct-19 00:34N 33°46' W 118°13'0 0.0
2014-Oct-18 23:34N 33°46' W 118°13'0 0.0
2014-Oct-18 22:34N 33°46' W 118°13'0 0.1
2014-Oct-18 21:33N 33°46' W 118°13'2 2.0
2014-Oct-18 20:34N 33°44' W 118°12'0 0.1
2014-Oct-18 19:34N 33°45' W 118°12'1 1.0
2014-Oct-18 18:34N 33°44' W 118°12'4 2.0
2014-Oct-18 16:33N 33°46' W 118°16'3 2.2
2014-Oct-18 15:14N 33°44' W 118°13'1 2.0
2014-Oct-18 14:33N 33°46' W 118°13'1 0.7
2014-Oct-18 13:33N 33°46' W 118°14'3 3.0
2014-Oct-18 12:33N 33°44' W 118°12'3 3.1
2014-Oct-18 11:33N 33°46' W 118°14'1 0.9
2014-Oct-18 10:33N 33°46' W 118°13'0 0.1
2014-Oct-18 09:31N 33°46' W 118°13'0 0.0
2014-Oct-18 08:31N 33°46' W 118°13'0 0.0
2014-Oct-18 07:31N 33°46' W 118°13'0 0.0
2014-Oct-18 06:31N 33°46' W 118°13'0 0.0
2014-Oct-18 05:33N 33°46' W 118°13'1 1.5
2014-Oct-18 04:33N 33°45' W 118°13'1 0.8
2014-Oct-18 03:33N 33°44' W 118°12'0 0.0
2014-Oct-18 02:33N 33°44' W 118°12'4 3.2
2014-Oct-18 01:19N 33°44' W 118°17'1 1.4
2014-Oct-18 00:33N 33°45' W 118°17'3 2.4
2014-Oct-17 23:16N 33°44' W 118°13'2 2.3
2014-Oct-17 22:33N 33°44' W 118°12'1 0.3
2014-Oct-17 20:33N 33°44' W 118°12'2 2.1
2014-Oct-17 19:33N 33°46' W 118°13'0 0.0
2014-Oct-17 18:33N 33°46' W 118°13'0 0.0
2014-Oct-17 17:33N 33°46' W 118°13'0 0.0
2014-Oct-17 16:33N 33°46' W 118°13'0 0.0
2014-Oct-17 15:33N 33°46' W 118°13'0 0.0
2014-Oct-17 14:33N 33°46' W 118°13'2 2.4
2014-Oct-17 13:33N 33°46' W 118°16'1 1.4
2014-Oct-17 12:33N 33°46' W 118°14'2 1.7
2014-Oct-17 11:33N 33°45' W 118°13'0 0.1
2014-Oct-17 10:33N 33°45' W 118°13'0 0.4
2014-Oct-17 09:33N 33°45' W 118°13'3 1.3
2014-Oct-17 07:33N 33°46' W 118°16'0 0.2
2014-Oct-17 06:33N 33°46' W 118°16'2 2.3
2014-Oct-17 05:33N 33°45' W 118°13'1 0.8
2014-Oct-17 04:33N 33°45' W 118°12'0 0.4
2014-Oct-17 03:33N 33°44' W 118°13'1 1.4
2014-Oct-17 02:33N 33°46' W 118°13'0 0.0
2014-Oct-17 01:33N 33°46' W 118°13'1 0.8
2014-Oct-17 00:33N 33°45' W 118°13'2 1.6
2014-Oct-16 23:33N 33°46' W 118°13'1 0.8
2014-Oct-16 22:33N 33°46' W 118°13'0 0.0
2014-Oct-16 21:33N 33°46' W 118°13'0 0.5
2014-Oct-16 20:33N 33°46' W 118°13'1 1.3
2014-Oct-16 19:33N 33°45' W 118°13'0 0.1
2014-Oct-16 18:33N 33°45' W 118°13'1 0.7
2014-Oct-16 17:33N 33°46' W 118°13'0 0.2
2014-Oct-16 16:33N 33°46' W 118°13'2 2.1
2014-Oct-16 15:32N 33°46' W 118°16'1 0.5
2014-Oct-16 14:33N 33°45' W 118°16'2 1.7
2014-Oct-16 13:33N 33°44' W 118°16'2 2.3
2014-Oct-16 12:33N 33°45' W 118°13'1 0.9
2014-Oct-16 11:33N 33°45' W 118°14'1 0.8
2014-Oct-16 10:33N 33°45' W 118°13'1 1.0
2014-Oct-16 09:33N 33°46' W 118°13'0 0.0
2014-Oct-16 08:33N 33°46' W 118°13'0 0.0
2014-Oct-16 07:33N 33°46' W 118°13'0 0.0
2014-Oct-16 06:33N 33°46' W 118°13'0 0.0
2014-Oct-16 05:33N 33°46' W 118°13'0 0.0
2014-Oct-16 04:33N 33°46' W 118°13'0 0.0
2014-Oct-16 03:33N 33°46' W 118°13'0 0.0
2014-Oct-16 02:33N 33°46' W 118°13'0 0.0
2014-Oct-16 01:33N 33°46' W 118°13'0 0.0
2014-Oct-16 00:33N 33°46' W 118°13'0 0.0
2014-Oct-15 23:33N 33°46' W 118°13'0 0.0
2014-Oct-15 22:33N 33°46' W 118°13'0 0.0
2014-Oct-15 21:33N 33°46' W 118°13'0 0.0
2014-Oct-15 20:33N 33°46' W 118°13'  

Dump ship's entire track history